Tropical Cyclones
[Index]
Main Index Home Page Stock Weather Photos Extreme Storms Discussion Storm News and Storm Chasing Reports Tropical Cyclones / Hurricanes / Typhoons Weather Data and Links Wild Fires / Bushfires Weather Observation Techniques Weather Picture Catalogue Tornado Pictures and Reports Stock Video Footage and DVDs for sale
Season 2005-2006 Tropical Cyclone TAM Track Map
Season 2005-2006 Summaries (Operational Data): [AU] [SIO] [SPAC] [SH]
<<- Previous TC | 2005-2006 Season | Next TC ->>

click for intensity scale information  Lat/long Grid: Show Hide

 Date Labels: Show Hide

Operational Tropical Cyclone Data : JTWC Advisories

Name: TAM
Number: 0606

06 Jan 2006 18:00 UTC to 15 Jan 2006 00:00 UTC

    date/time    lat    long     hPa   cat  kts
2006-01-06 18   15.0   179.5    1004         15          
2006-01-07 06   15.0   179.0    1006         15          
2006-01-07 18   15.0   179.7    1002         25          
2006-01-08 06   14.6   177.3    1002         25          
2006-01-09 00   15.4   176.4    1004         20          
2006-01-09 06   14.5   175.5    1004         15          
2006-01-09 18   13.0   175.0    1004         15          
2006-01-10 06   13.0   176.0    1002         20          
2006-01-10 21   13.0   175.0    1001         25          
2006-01-11 06   13.5   178.0    1001         25          
2006-01-11 18   14.2   179.9W    999         30          
2006-01-12 00   14.5   178.8W    996         30          
2006-01-12 06   14.7   177.3W    991    1    40          
2006-01-12 12   15.5   175.8W    988    1    40          
2006-01-12 18   16.0   175.0W    987    1    45          
2006-01-13 00   17.0   173.2W    987    1    45          
2006-01-13 06   18.2   171.0W    987    1    45          
2006-01-13 12   20.0   170.8W    987    1    45          
2006-01-13 18   23.6   169.3W    987    1    45          
2006-01-13 23   26.3   168.0W    988    1    45          
2006-01-14 00   27.2   167.8W                            
2006-01-14 12   33.0   168.0W    990    1    40          
2006-01-15 00   40.0   167.0W    992    1    35          
Winds are 10-min average.

Tropical cyclone tracks developed by Michael Bath using operational warnings and advisories and Google Maps.


[Australian Severe Weather index] [Copyright Notice] [Email Contacts] [Search This Site] [Privacy Policy]
Document: tropical_cyclone_tam.htm Updated: 28 May 2013